Time;durP1;ratioP1;P1;durP2;ratioP2;P2;SDS_P1;SDS_P2;PMS_P1;PMS_P2;Temp;Humidity;BMP_temperature;BMP_pressure;BME280_temperature;BME280_humidity;BME280_pressure;Samples;Min_cycle;Max_cycle;Signal;HPM_P1;HPM_P2
2022/11/06 00:02:10;;;;;;;11.68;5.63;;;;;;;;;;5281274;28;20291;-78
2022/11/06 00:04:41;;;;;;;8.80;4.83;;;;;;;;;;5282895;28;20037;-78
2022/11/06 00:07:12;;;;;;;9.10;4.97;;;;;;;;;;5279848;28;21224;-78
2022/11/06 00:09:44;;;;;;;13.00;5.30;;;;;;;;;;5277670;28;20298;-78
2022/11/06 00:12:15;;;;;;;13.10;4.83;;;;;;;;;;5279813;28;20074;-79
2022/11/06 00:14:46;;;;;;;8.47;5.20;;;;;;;;;;5276288;28;20286;-79
2022/11/06 00:17:17;;;;;;;13.90;4.70;;;;;;;;;;5280209;28;20361;-79
2022/11/06 00:19:48;;;;;;;7.57;4.77;;;;;;;;;;5278540;28;20267;-78
2022/11/06 00:22:19;;;;;;;15.90;4.93;;;;;;;;;;5279476;28;20291;-78
2022/11/06 00:24:51;;;;;;;10.93;4.40;;;;;;;;;;5273558;28;20132;-78
2022/11/06 00:27:22;;;;;;;12.57;4.57;;;;;;;;;;5273435;28;20275;-77
2022/11/06 00:29:54;;;;;;;13.17;4.60;;;;;;;;;;5276586;28;20037;-77
2022/11/06 00:32:25;;;;;;;10.10;4.22;;;;;;;;;;5276874;28;20244;-77
2022/11/06 00:34:56;;;;;;;10.52;5.05;;;;;;;;;;5280480;28;20100;-78
2022/11/06 00:37:27;;;;;;;13.33;4.40;;;;;;;;;;5275418;28;20032;-78
2022/11/06 00:39:59;;;;;;;10.43;4.05;;;;;;;;;;5271098;28;20379;-78
2022/11/06 00:42:31;;;;;;;9.73;4.55;;;;;;;;;;5277126;28;20393;-78
2022/11/06 00:45:02;;;;;;;12.77;4.63;;;;;;;;;;5273449;28;20489;-78
2022/11/06 00:47:33;;;;;;;9.38;4.28;;;;;;;;;;5269933;28;20052;-78
2022/11/06 00:50:05;;;;;;;10.70;3.87;;;;;;;;;;5285637;28;20085;-78
2022/11/06 00:52:36;;;;;;;12.40;4.90;;;;;;;;;;5257148;28;20064;-78
2022/11/06 00:55:07;;;;;;;11.33;4.73;;;;;;;;;;5279194;28;21418;-79
2022/11/06 00:57:38;;;;;;;10.13;4.35;;;;;;;;;;5277874;28;20323;-79
2022/11/06 01:00:10;;;;;;;11.40;3.33;;;;;;;;;;5276968;28;20039;-79
2022/11/06 01:02:41;;;;;;;9.73;3.85;;;;;;;;;;5277507;28;20973;-79
2022/11/06 01:05:12;;;;;;;7.90;3.70;;;;;;;;;;5262762;28;20032;-79
2022/11/06 01:07:43;;;;;;;6.82;3.38;;;;;;;;;;5278556;28;20644;-79
2022/11/06 01:10:15;;;;;;;11.00;3.77;;;;;;;;;;5281176;28;20429;-79
2022/11/06 01:12:46;;;;;;;9.18;3.75;;;;;;;;;;5278129;28;20294;-79
2022/11/06 01:15:17;;;;;;;13.43;4.73;;;;;;;;;;5278361;28;20029;-79
2022/11/06 01:17:48;;;;;;;10.50;4.05;;;;;;;;;;5278224;28;20280;-79
2022/11/06 01:20:19;;;;;;;9.33;4.10;;;;;;;;;;5277836;28;20053;-79
2022/11/06 01:22:51;;;;;;;10.07;4.15;;;;;;;;;;5275820;28;20376;-79
2022/11/06 01:25:22;;;;;;;9.40;3.20;;;;;;;;;;5275404;28;20096;-79
2022/11/06 01:27:53;;;;;;;6.97;3.60;;;;;;;;;;5260455;28;21056;-79
2022/11/06 01:30:24;;;;;;;13.60;3.70;;;;;;;;;;5282543;28;20279;-79
2022/11/06 01:32:55;;;;;;;9.30;3.60;;;;;;;;;;5283309;28;20289;-79
2022/11/06 01:35:26;;;;;;;11.93;3.30;;;;;;;;;;5292737;28;20275;-79
2022/11/06 01:37:58;;;;;;;8.47;3.77;;;;;;;;;;5296177;28;20283;-79
2022/11/06 01:40:29;;;;;;;9.43;3.40;;;;;;;;;;5291805;28;20367;-79
2022/11/06 01:43:00;;;;;;;8.68;3.75;;;;;;;;;;5299008;28;20289;-79
2022/11/06 01:45:37;;;;;;;9.83;3.67;;;;;;;;;;5283160;28;20104;-79
2022/11/06 01:48:08;;;;;;;6.97;3.10;;;;;;;;;;5284679;28;20057;-79
2022/11/06 01:50:41;;;;;;;11.13;3.40;;;;;;;;;;5293550;28;20047;-79
2022/11/06 01:53:12;;;;;;;10.30;3.22;;;;;;;;;;5293874;28;20041;-79
2022/11/06 01:55:45;;;;;;;13.00;3.83;;;;;;;;;;5285257;28;20363;-79
2022/11/06 01:58:18;;;;;;;7.45;3.20;;;;;;;;;;5296050;28;20048;-79
2022/11/06 02:00:49;;;;;;;7.80;2.90;;;;;;;;;;5286104;28;20466;-79
2022/11/06 02:03:20;;;;;;;9.93;3.75;;;;;;;;;;5286935;28;20056;-79
2022/11/06 02:05:55;;;;;;;9.35;3.20;;;;;;;;;;5287919;28;20095;-78
2022/11/06 02:08:27;;;;;;;9.38;2.90;;;;;;;;;;5280440;28;20133;-79
2022/11/06 02:10:58;;;;;;;8.38;2.92;;;;;;;;;;5279284;28;20029;-79
2022/11/06 02:14:01;;;;;;;7.28;3.05;;;;;;;;;;5278606;28;20055;-79
2022/11/06 02:16:38;;;;;;;7.15;2.65;;;;;;;;;;5254246;28;20410;-79
2022/11/06 02:19:28;;;;;;;12.57;3.20;;;;;;;;;;5292607;28;20462;-81
2022/11/06 02:22:22;;;;;;;11.50;3.60;;;;;;;;;;5287675;28;20026;-80
2022/11/06 02:24:53;;;;;;;9.65;3.22;;;;;;;;;;5293917;28;20043;-80
2022/11/06 02:27:26;;;;;;;10.10;2.72;;;;;;;;;;5288491;28;20465;-79
2022/11/06 02:30:08;;;;;;;12.63;2.92;;;;;;;;;;5291604;28;20108;-80
2022/11/06 02:32:52;;;;;;;10.32;3.50;;;;;;;;;;5278230;28;20030;-80
2022/11/06 02:35:42;;;;;;;12.77;3.28;;;;;;;;;;5288973;28;20041;-79
2022/11/06 02:38:15;;;;;;;8.90;2.65;;;;;;;;;;5294061;28;20493;-79
2022/11/06 02:40:49;;;;;;;7.40;2.65;;;;;;;;;;5297107;28;20527;-79
2022/11/06 02:43:22;;;;;;;14.65;3.20;;;;;;;;;;5295029;28;20108;-79
2022/11/06 02:45:55;;;;;;;10.55;2.65;;;;;;;;;;5293850;28;20039;-79
2022/11/06 02:48:28;;;;;;;8.32;2.72;;;;;;;;;;5290936;28;20467;-79
2022/11/06 02:51:02;;;;;;;9.18;3.03;;;;;;;;;;5280698;28;20392;-79
2022/11/06 02:53:34;;;;;;;17.75;3.35;;;;;;;;;;5292457;28;20115;-79
2022/11/06 02:56:07;;;;;;;10.43;2.63;;;;;;;;;;5273891;28;20026;-79
2022/11/06 02:58:50;;;;;;;8.30;2.80;;;;;;;;;;5273612;28;20033;-79
2022/11/06 03:01:57;;;;;;;10.13;2.72;;;;;;;;;;5282616;28;20021;-79
2022/11/06 03:04:30;;;;;;;10.15;2.70;;;;;;;;;;5211848;28;20038;-79
2022/11/06 03:07:07;;;;;;;11.57;2.83;;;;;;;;;;5274850;28;20044;-79
2022/11/06 03:09:39;;;;;;;10.50;3.30;;;;;;;;;;5294999;28;20397;-79
2022/11/06 03:12:16;;;;;;;10.75;2.92;;;;;;;;;;5296187;28;20040;-79
2022/11/06 03:14:53;;;;;;;9.43;3.17;;;;;;;;;;5293912;28;20028;-79
2022/11/06 03:17:34;;;;;;;7.82;2.92;;;;;;;;;;5286254;28;20032;-79
2022/11/06 03:20:05;;;;;;;9.55;3.45;;;;;;;;;;5298328;28;20063;-79
2022/11/06 03:22:43;;;;;;;11.82;3.22;;;;;;;;;;5295349;28;20036;-79
2022/11/06 03:25:17;;;;;;;9.38;3.13;;;;;;;;;;5296707;28;20033;-79
2022/11/06 03:27:54;;;;;;;12.13;3.55;;;;;;;;;;5286219;28;20029;-79
2022/11/06 03:30:26;;;;;;;6.97;2.72;;;;;;;;;;5295876;28;20089;-79
2022/11/06 03:33:10;;;;;;;9.50;2.50;;;;;;;;;;5267586;28;20029;-79
2022/11/06 03:35:50;;;;;;;11.18;3.13;;;;;;;;;;5294625;28;20025;-79
2022/11/06 03:38:25;;;;;;;14.65;3.33;;;;;;;;;;5292891;28;20033;-79
2022/11/06 03:40:59;;;;;;;12.57;3.13;;;;;;;;;;5289714;28;20040;-79
2022/11/06 03:43:34;;;;;;;8.73;3.17;;;;;;;;;;5276894;28;20552;-78
2022/11/06 03:46:08;;;;;;;6.72;2.63;;;;;;;;;;5291175;28;20029;-78
2022/11/06 03:48:41;;;;;;;8.52;2.75;;;;;;;;;;5290891;28;20037;-78
2022/11/06 03:51:16;;;;;;;11.20;2.95;;;;;;;;;;5270074;28;20376;-78
2022/11/06 03:53:52;;;;;;;9.10;2.60;;;;;;;;;;5268464;28;20445;-78
2022/11/06 03:56:35;;;;;;;11.65;2.70;;;;;;;;;;5292713;28;20485;-78
2022/11/06 03:59:07;;;;;;;8.79;2.31;;;;;;;;;;4904970;28;6447282;-78
2022/11/06 04:01:43;;;;;;;6.90;2.65;;;;;;;;;;4661344;28;17683193;-78
2022/11/06 04:05:26;;;;;;;9.23;2.47;;;;;;;;;;5068649;28;78456897;-78
2022/11/06 04:13:56;;;;;;;9.97;2.60;;;;;;;;;;5125321;28;4818834;-78
2022/11/06 04:16:33;;;;;;;6.91;2.19;;;;;;;;;;3847505;28;35852078;-78
2022/11/06 04:19:12;;;;;;;7.43;2.25;;;;;;;;;;4556504;28;15168326;-78
2022/11/06 04:21:44;;;;;;;;;;;;;;;;;;4578647;28;20368670;-78
2022/11/06 04:27:25;;;;;;;9.63;2.73;;;;;;;;;;4250362;28;23487324;-78
2022/11/06 04:30:06;;;;;;;9.27;2.92;;;;;;;;;;2554548;28;66948194;-78
2022/11/06 04:32:44;;;;;;;5.68;2.28;;;;;;;;;;3652743;28;36080087;-78
2022/11/06 04:35:29;;;;;;;8.32;2.17;;;;;;;;;;2173881;28;38195419;-78
2022/11/06 04:38:06;;;;;;;12.57;2.00;;;;;;;;;;4312688;28;25446250;-78
2022/11/06 04:40:52;;;;;;;5.63;2.50;;;;;;;;;;4215068;28;24756865;-78
2022/11/06 04:43:54;;;;;;;;;;;;;;;;;;525296;28;67113886;-78
2022/11/06 04:46:31;;;;;;;9.32;2.53;;;;;;;;;;4886552;28;9914909;-78
2022/11/06 04:49:04;;;;;;;10.27;3.00;;;;;;;;;;2637141;28;57787836;-78
2022/11/06 04:51:53;;;;;;;9.80;2.78;;;;;;;;;;4128888;28;29767967;-78
2022/11/06 04:54:24;;;;;;;6.53;2.50;;;;;;;;;;4776404;28;8026615;-78
2022/11/06 04:57:12;;;;;;;;;;;;;;;;;;3677736;28;53391445;-78
2022/11/06 04:59:43;;;;;;;12.18;3.17;;;;;;;;;;4073041;28;16263705;-78
2022/11/06 05:02:54;;;;;;;9.43;2.17;;;;;;;;;;2877814;28;55056957;-78
2022/11/06 05:05:50;;;;;;;6.85;2.28;;;;;;;;;;1292935;28;61210397;-78
2022/11/06 05:08:21;;;;;;;12.10;3.00;;;;;;;;;;4354554;28;10754302;-78
2022/11/06 05:10:53;;;;;;;8.77;2.47;;;;;;;;;;3721701;28;34047253;-78
2022/11/06 05:13:24;;;;;;;8.63;2.90;;;;;;;;;;4709738;28;8755955;-78
2022/11/06 05:15:56;;;;;;;6.53;2.50;;;;;;;;;;5285290;28;20025;-78
2022/11/06 05:18:27;;;;;;;12.48;3.35;;;;;;;;;;5290896;28;20282;-78
2022/11/06 05:23:49;;;;;;;11.10;3.78;;;;;;;;;;5110885;28;4371327;-78
2022/11/06 05:26:20;;;;;;;8.47;2.93;;;;;;;;;;5288525;28;20107;-78
2022/11/06 05:28:51;;;;;;;7.93;2.65;;;;;;;;;;5295679;28;20329;-78
2022/11/06 05:31:23;;;;;;;5.50;2.78;;;;;;;;;;5289101;28;20032;-78
2022/11/06 05:33:54;;;;;;;6.75;2.58;;;;;;;;;;5296646;28;20032;-78
2022/11/06 05:36:25;;;;;;;7.63;3.50;;;;;;;;;;5294194;28;20025;-78
2022/11/06 05:38:56;;;;;;;8.70;3.10;;;;;;;;;;5292498;28;20637;-78
2022/11/06 05:41:28;;;;;;;8.25;3.00;;;;;;;;;;5290617;28;20033;-78
2022/11/06 05:43:59;;;;;;;11.60;3.05;;;;;;;;;;5292864;28;20115;-78
2022/11/06 05:46:31;;;;;;;8.63;2.40;;;;;;;;;;5287360;28;20088;-78
2022/11/06 05:49:02;;;;;;;13.23;3.00;;;;;;;;;;5296715;28;20316;-78
2022/11/06 05:51:33;;;;;;;7.20;2.60;;;;;;;;;;5295115;28;20029;-78
2022/11/06 05:54:04;;;;;;;8.52;3.50;;;;;;;;;;5265622;28;20586;-78
2022/11/06 05:56:36;;;;;;;6.57;2.55;;;;;;;;;;5280215;28;20041;-77
2022/11/06 05:59:07;;;;;;;11.32;2.70;;;;;;;;;;5293125;28;20024;-78
2022/11/06 06:01:38;;;;;;;10.60;2.95;;;;;;;;;;5273021;28;20432;-78
2022/11/06 06:04:09;;;;;;;8.20;3.00;;;;;;;;;;5289273;28;20536;-78
2022/11/06 06:06:41;;;;;;;8.70;2.47;;;;;;;;;;5291653;28;20028;-78
2022/11/06 06:09:12;;;;;;;6.80;2.40;;;;;;;;;;5293243;28;20424;-78
2022/11/06 06:11:43;;;;;;;8.43;2.60;;;;;;;;;;5297016;28;20064;-78
2022/11/06 06:14:14;;;;;;;7.80;2.58;;;;;;;;;;5297070;28;20362;-78
2022/11/06 06:16:46;;;;;;;11.50;3.17;;;;;;;;;;5292014;28;20035;-78
2022/11/06 06:19:17;;;;;;;6.95;1.88;;;;;;;;;;5294163;28;20473;-78
2022/11/06 06:21:48;;;;;;;11.27;2.47;;;;;;;;;;5298357;28;20562;-78
2022/11/06 06:24:20;;;;;;;9.43;2.72;;;;;;;;;;5293048;28;20029;-78
2022/11/06 06:26:51;;;;;;;8.63;2.80;;;;;;;;;;5292120;28;20411;-78
2022/11/06 06:29:22;;;;;;;7.87;2.67;;;;;;;;;;5296361;28;20275;-78
2022/11/06 06:31:53;;;;;;;8.98;3.00;;;;;;;;;;5282740;28;20032;-78
2022/11/06 06:34:24;;;;;;;9.15;2.83;;;;;;;;;;5285288;28;20098;-78
2022/11/06 06:36:56;;;;;;;5.65;2.50;;;;;;;;;;5270953;28;20040;-78
2022/11/06 06:39:27;;;;;;;7.37;2.30;;;;;;;;;;5291520;28;20032;-77
2022/11/06 06:41:58;;;;;;;6.73;2.30;;;;;;;;;;5294080;28;20223;-78
2022/11/06 06:44:29;;;;;;;10.40;2.17;;;;;;;;;;5276349;28;20365;-78
2022/11/06 06:47:00;;;;;;;6.90;2.00;;;;;;;;;;5298508;28;20303;-78
2022/11/06 06:49:32;;;;;;;11.07;2.40;;;;;;;;;;5289958;28;20033;-78
2022/11/06 06:52:03;;;;;;;5.83;2.43;;;;;;;;;;5296874;28;20286;-78
2022/11/06 06:54:34;;;;;;;8.63;2.22;;;;;;;;;;5290110;28;20705;-78
2022/11/06 06:57:08;;;;;;;8.38;2.30;;;;;;;;;;5280260;28;20422;-79
2022/11/06 06:59:40;;;;;;;5.22;2.03;;;;;;;;;;5273106;28;20032;-78
2022/11/06 07:02:11;;;;;;;7.57;2.83;;;;;;;;;;5292912;28;20523;-78
2022/11/06 07:04:42;;;;;;;6.13;2.42;;;;;;;;;;5294734;28;20279;-78
2022/11/06 07:07:13;;;;;;;5.60;2.20;;;;;;;;;;5291562;28;20123;-78
2022/11/06 07:09:45;;;;;;;8.23;3.05;;;;;;;;;;5278672;28;20047;-78
2022/11/06 07:12:16;;;;;;;7.75;3.00;;;;;;;;;;5276807;28;20025;-78
2022/11/06 07:14:48;;;;;;;7.20;2.28;;;;;;;;;;5289611;28;20034;-78
2022/11/06 07:17:19;;;;;;;7.50;1.92;;;;;;;;;;5293075;28;20035;-78
2022/11/06 07:19:50;;;;;;;5.75;2.17;;;;;;;;;;5276105;28;20045;-78
2022/11/06 07:22:21;;;;;;;5.30;2.20;;;;;;;;;;5294199;28;20066;-78
2022/11/06 07:24:53;;;;;;;8.18;2.40;;;;;;;;;;5276089;28;20275;-78
2022/11/06 07:27:24;;;;;;;8.93;2.57;;;;;;;;;;5296311;28;20086;-78
2022/11/06 07:29:55;;;;;;;7.13;2.00;;;;;;;;;;5291861;28;20324;-78
2022/11/06 07:32:26;;;;;;;4.78;1.90;;;;;;;;;;5284971;28;20108;-78
2022/11/06 07:34:58;;;;;;;9.43;2.50;;;;;;;;;;5292053;28;20028;-78
2022/11/06 07:37:29;;;;;;;7.10;2.28;;;;;;;;;;5297192;28;20036;-78
2022/11/06 07:40:00;;;;;;;6.77;2.10;;;;;;;;;;5296549;28;20385;-78
2022/11/06 07:42:31;;;;;;;5.80;2.03;;;;;;;;;;5292453;28;20298;-78
2022/11/06 07:45:03;;;;;;;7.03;2.07;;;;;;;;;;5284282;28;20017;-78
2022/11/06 07:47:34;;;;;;;7.72;2.30;;;;;;;;;;5285169;28;20325;-78
2022/11/06 07:50:05;;;;;;;4.85;2.00;;;;;;;;;;5276253;28;20020;-78
2022/11/06 07:52:37;;;;;;;4.28;2.17;;;;;;;;;;5278570;28;20039;-78
2022/11/06 07:55:08;;;;;;;7.40;1.90;;;;;;;;;;5295327;28;20527;-78
2022/11/06 07:57:39;;;;;;;10.85;1.98;;;;;;;;;;5274762;28;20045;-78
2022/11/06 08:00:11;;;;;;;6.40;1.80;;;;;;;;;;5280958;28;20044;-79
2022/11/06 08:02:42;;;;;;;6.68;2.03;;;;;;;;;;5276108;28;20291;-79
2022/11/06 08:05:13;;;;;;;5.13;1.92;;;;;;;;;;5276944;28;20489;-79
2022/11/06 08:07:44;;;;;;;7.82;2.10;;;;;;;;;;5279147;28;20057;-79
2022/11/06 08:10:16;;;;;;;7.50;1.63;;;;;;;;;;5260583;28;20378;-79
2022/11/06 08:12:47;;;;;;;7.43;2.00;;;;;;;;;;5277421;28;20033;-79
2022/11/06 08:15:18;;;;;;;5.57;2.00;;;;;;;;;;5262553;28;20104;-79
2022/11/06 08:17:50;;;;;;;8.70;2.00;;;;;;;;;;5279734;28;20046;-79
2022/11/06 08:20:21;;;;;;;6.35;2.20;;;;;;;;;;5282099;28;20043;-79
2022/11/06 08:22:56;;;;;;;5.93;1.73;;;;;;;;;;5277774;28;20033;-79
2022/11/06 08:25:28;;;;;;;8.30;2.50;;;;;;;;;;5277594;28;20029;-79
2022/11/06 08:28:00;;;;;;;9.20;2.15;;;;;;;;;;5279725;28;20037;-79
2022/11/06 08:30:31;;;;;;;3.38;1.33;;;;;;;;;;5275094;28;20017;-79
2022/11/06 08:33:04;;;;;;;5.82;2.03;;;;;;;;;;5276799;28;20032;-77
2022/11/06 08:35:35;;;;;;;8.25;2.00;;;;;;;;;;5277745;28;20036;-80
2022/11/06 08:38:07;;;;;;;5.60;1.38;;;;;;;;;;5259317;28;20041;-78
2022/11/06 08:40:38;;;;;;;5.47;1.88;;;;;;;;;;5263318;28;20477;-79
2022/11/06 08:43:10;;;;;;;4.15;1.40;;;;;;;;;;5282478;28;20184;-78
2022/11/06 08:45:42;;;;;;;6.53;1.73;;;;;;;;;;5275681;28;20079;-79
2022/11/06 08:48:13;;;;;;;4.85;1.95;;;;;;;;;;5272548;28;20288;-79
2022/11/06 08:50:44;;;;;;;3.93;1.60;;;;;;;;;;5263998;28;20490;-80
2022/11/06 08:53:15;;;;;;;6.60;1.87;;;;;;;;;;5273125;28;20029;-78
2022/11/06 08:55:46;;;;;;;4.78;1.65;;;;;;;;;;5294877;28;20242;-79
2022/11/06 08:58:18;;;;;;;5.88;1.58;;;;;;;;;;5293276;28;20040;-80
2022/11/06 09:00:49;;;;;;;3.20;1.42;;;;;;;;;;5292366;28;20052;-80
2022/11/06 09:03:20;;;;;;;2.63;1.27;;;;;;;;;;5293618;28;20365;-79
2022/11/06 09:05:52;;;;;;;7.13;2.08;;;;;;;;;;5293767;28;20033;-80
2022/11/06 09:08:23;;;;;;;5.57;1.58;;;;;;;;;;5288473;28;20035;-79
2022/11/06 09:10:54;;;;;;;7.47;1.43;;;;;;;;;;5300685;28;20035;-79
2022/11/06 09:13:25;;;;;;;6.07;1.57;;;;;;;;;;5295514;28;20496;-79
2022/11/06 09:15:58;;;;;;;4.20;1.50;;;;;;;;;;5268564;28;20259;-79
2022/11/06 09:18:29;;;;;;;4.50;1.48;;;;;;;;;;5287211;28;20056;-79
2022/11/06 09:21:00;;;;;;;4.15;1.40;;;;;;;;;;5285231;28;20032;-79
2022/11/06 09:23:32;;;;;;;6.93;2.10;;;;;;;;;;5289187;28;20127;-80
2022/11/06 09:26:03;;;;;;;5.33;1.50;;;;;;;;;;5298688;28;20155;-79
2022/11/06 09:28:34;;;;;;;6.25;2.00;;;;;;;;;;5288388;28;20477;-79
2022/11/06 09:31:05;;;;;;;6.00;1.47;;;;;;;;;;5297337;28;20449;-79
2022/11/06 09:33:37;;;;;;;4.13;1.50;;;;;;;;;;5292411;28;20040;-80
2022/11/06 09:36:08;;;;;;;6.15;1.60;;;;;;;;;;5283089;28;20492;-79
2022/11/06 09:38:39;;;;;;;5.93;2.17;;;;;;;;;;5291244;28;20068;-80
2022/11/06 09:41:17;;;;;;;6.30;1.73;;;;;;;;;;5282902;28;20473;-79
2022/11/06 09:44:06;;;;;;;2.67;1.27;;;;;;;;;;5286403;28;20626;-80
2022/11/06 09:46:41;;;;;;;5.82;1.50;;;;;;;;;;5282026;28;20073;-79
2022/11/06 09:49:15;;;;;;;5.43;1.33;;;;;;;;;;5281849;28;20043;-79
2022/11/06 09:52:04;;;;;;;4.45;1.35;;;;;;;;;;5281809;28;20366;-79
2022/11/06 09:54:50;;;;;;;3.70;1.20;;;;;;;;;;5275641;28;20029;-79
2022/11/06 09:57:26;;;;;;;4.22;1.80;;;;;;;;;;5279183;28;20029;-79
2022/11/06 09:59:59;;;;;;;5.57;1.70;;;;;;;;;;5281275;28;20021;-79
2022/11/06 10:02:39;;;;;;;5.43;1.77;;;;;;;;;;5294502;28;20096;-79
2022/11/06 10:05:16;;;;;;;6.20;2.20;;;;;;;;;;5291891;28;20037;-79
2022/11/06 10:07:49;;;;;;;5.70;1.63;;;;;;;;;;5288510;28;20033;-79
2022/11/06 10:10:24;;;;;;;5.32;1.77;;;;;;;;;;5280831;28;20033;-78
2022/11/06 10:13:07;;;;;;;5.57;1.92;;;;;;;;;;5269842;28;20037;-79
2022/11/06 10:15:45;;;;;;;4.45;1.38;;;;;;;;;;5274787;28;20029;-80
2022/11/06 10:18:22;;;;;;;5.25;1.83;;;;;;;;;;5272744;28;20037;-80
2022/11/06 10:21:01;;;;;;;3.60;1.55;;;;;;;;;;5261816;28;20037;-80
2022/11/06 10:23:33;;;;;;;4.70;1.73;;;;;;;;;;5276603;28;20021;-80
2022/11/06 10:26:12;;;;;;;6.30;1.88;;;;;;;;;;5282891;28;20021;-79
2022/11/06 10:28:52;;;;;;;7.00;1.65;;;;;;;;;;5282183;28;20037;-80
2022/11/06 10:31:46;;;;;;;5.22;1.40;;;;;;;;;;5282374;28;20099;-80
2022/11/06 10:34:18;;;;;;;6.43;1.50;;;;;;;;;;5244342;28;20056;-80
2022/11/06 10:36:49;;;;;;;4.90;1.80;;;;;;;;;;5283202;28;20017;-80
2022/11/06 10:39:25;;;;;;;3.58;1.42;;;;;;;;;;5282601;28;20067;-80
2022/11/06 10:41:56;;;;;;;;;;;;;;;;;;5283498;28;20655;-80
2022/11/06 10:44:32;;;;;;;4.70;1.40;;;;;;;;;;5279206;28;19921;-80
2022/11/06 10:47:20;;;;;;;4.50;1.58;;;;;;;;;;5284012;28;20058;-80
2022/11/06 10:49:53;;;;;;;5.18;1.48;;;;;;;;;;5284978;28;20385;-80
2022/11/06 10:52:30;;;;;;;6.07;1.55;;;;;;;;;;5283564;28;20029;-79
2022/11/06 10:55:20;;;;;;;5.03;1.55;;;;;;;;;;5265244;28;20037;-79
2022/11/06 10:58:02;;;;;;;7.63;1.60;;;;;;;;;;5272186;28;20040;-79
2022/11/06 11:00:33;;;;;;;3.88;1.55;;;;;;;;;;5287606;28;20033;-80
2022/11/06 11:03:06;;;;;;;7.95;2.00;;;;;;;;;;5287482;28;20473;-79
2022/11/06 11:05:39;;;;;;;6.72;1.85;;;;;;;;;;5268574;28;20108;-80
2022/11/06 11:08:29;;;;;;;8.68;1.88;;;;;;;;;;5285936;28;20036;-79
2022/11/06 11:11:02;;;;;;;5.18;1.35;;;;;;;;;;5271411;28;20029;-77
2022/11/06 11:13:33;;;;;;;4.07;1.45;;;;;;;;;;5270408;28;20037;-79
2022/11/06 11:16:11;;;;;;;5.78;1.80;;;;;;;;;;5287338;28;20025;-79
2022/11/06 11:18:43;;;;;;;6.68;1.50;;;;;;;;;;5290453;28;20033;-80
2022/11/06 11:21:17;;;;;;;6.82;1.80;;;;;;;;;;5271311;28;20028;-80
2022/11/06 11:24:04;;;;;;;5.05;1.40;;;;;;;;;;5285908;28;20036;-80
2022/11/06 11:26:55;;;;;;;6.13;1.30;;;;;;;;;;5274702;28;20348;-80
2022/11/06 11:29:29;;;;;;;6.68;1.60;;;;;;;;;;5269050;28;20478;-79
2022/11/06 11:32:02;;;;;;;9.35;1.65;;;;;;;;;;5283392;28;20401;-79
2022/11/06 11:34:36;;;;;;;6.40;1.73;;;;;;;;;;5285404;28;20044;-78
2022/11/06 11:37:20;;;;;;;5.65;1.45;;;;;;;;;;5285247;28;20111;-80
2022/11/06 11:39:51;;;;;;;6.95;1.77;;;;;;;;;;5284706;28;20059;-78
2022/11/06 11:42:25;;;;;;;4.93;1.47;;;;;;;;;;5282488;28;20308;-79
2022/11/06 11:45:08;;;;;;;7.43;2.05;;;;;;;;;;5284247;28;20260;-79
2022/11/06 11:47:40;;;;;;;5.68;1.45;;;;;;;;;;5285094;28;20037;-79
2022/11/06 11:50:20;;;;;;;10.32;2.10;;;;;;;;;;5284513;28;20552;-79
2022/11/06 11:52:56;;;;;;;4.65;1.35;;;;;;;;;;5282024;28;20040;-79
2022/11/06 11:55:28;;;;;;;5.18;1.40;;;;;;;;;;5264703;28;20086;-79
2022/11/06 11:58:00;;;;;;;7.95;2.13;;;;;;;;;;5284494;28;20040;-79
2022/11/06 12:00:31;;;;;;;6.60;1.73;;;;;;;;;;5285494;28;20076;-80
2022/11/06 12:03:09;;;;;;;6.93;1.65;;;;;;;;;;5283179;28;20075;-80
2022/11/06 12:05:41;;;;;;;6.63;1.67;;;;;;;;;;5283836;28;20029;-77
2022/11/06 12:08:20;;;;;;;5.63;1.60;;;;;;;;;;5284557;28;20040;-77
2022/11/06 12:10:51;;;;;;;5.13;1.48;;;;;;;;;;5264865;28;20115;-80
2022/11/06 12:13:23;;;;;;;7.47;1.80;;;;;;;;;;5284462;28;20025;-78
2022/11/06 12:16:14;;;;;;;5.35;1.85;;;;;;;;;;5281687;28;20025;-79
2022/11/06 12:18:47;;;;;;;5.40;1.48;;;;;;;;;;5273075;28;20048;-78
2022/11/06 12:21:24;;;;;;;5.43;1.70;;;;;;;;;;5283055;28;20111;-78
2022/11/06 12:23:59;;;;;;;6.57;1.77;;;;;;;;;;5283110;28;20024;-78
2022/11/06 12:26:42;;;;;;;6.45;2.20;;;;;;;;;;5283922;28;20502;-78
2022/11/06 12:29:17;;;;;;;7.15;2.28;;;;;;;;;;5283853;28;20499;-78
2022/11/06 12:31:54;;;;;;;6.97;1.88;;;;;;;;;;5284482;28;20060;-78
2022/11/06 12:34:44;;;;;;;4.53;1.73;;;;;;;;;;5282393;28;20481;-78
2022/11/06 12:37:34;;;;;;;6.30;1.58;;;;;;;;;;5281873;28;20029;-78
2022/11/06 12:40:15;;;;;;;14.38;2.78;;;;;;;;;;5267098;28;20025;-78
2022/11/06 12:43:07;;;;;;;9.32;2.63;;;;;;;;;;5278681;28;20413;-78
2022/11/06 12:45:52;;;;;;;5.40;2.30;;;;;;;;;;5256356;28;20029;-78
2022/11/06 12:48:40;;;;;;;5.68;1.95;;;;;;;;;;5286384;28;20032;-79
2022/11/06 12:51:11;;;;;;;5.78;1.48;;;;;;;;;;5290809;28;20037;-80
2022/11/06 12:53:43;;;;;;;5.05;1.40;;;;;;;;;;5286100;28;20107;-78
2022/11/06 12:56:38;;;;;;;3.97;1.48;;;;;;;;;;5276732;28;20041;-79
2022/11/06 12:59:18;;;;;;;4.13;1.38;;;;;;;;;;5272222;28;20029;-79
2022/11/06 13:01:57;;;;;;;6.57;1.45;;;;;;;;;;5288215;28;20029;-79
2022/11/06 13:04:32;;;;;;;5.15;1.17;;;;;;;;;;5290194;28;20052;-79
2022/11/06 13:07:11;;;;;;;4.85;1.40;;;;;;;;;;5285630;28;20029;-79
2022/11/06 13:09:48;;;;;;;4.75;1.40;;;;;;;;;;5276997;28;20025;-79
2022/11/06 13:12:40;;;;;;;7.82;2.17;;;;;;;;;;5287312;28;20048;-79
2022/11/06 13:15:17;;;;;;;6.65;1.60;;;;;;;;;;5285574;28;20075;-78
2022/11/06 13:17:54;;;;;;;6.25;1.10;;;;;;;;;;5280692;28;20040;-79
2022/11/06 13:20:34;;;;;;;5.45;1.40;;;;;;;;;;5289506;28;20179;-78
2022/11/06 13:23:26;;;;;;;3.50;1.00;;;;;;;;;;5284184;28;20045;-79
2022/11/06 13:26:05;;;;;;;6.57;1.60;;;;;;;;;;5283843;28;20093;-79
2022/11/06 13:28:38;;;;;;;4.50;1.40;;;;;;;;;;5294789;28;20493;-79
2022/11/06 13:31:11;;;;;;;5.28;1.50;;;;;;;;;;5274595;28;20342;-79
2022/11/06 13:33:42;;;;;;;7.47;1.33;;;;;;;;;;5277170;28;20039;-79
2022/11/06 13:36:14;;;;;;;8.00;1.30;;;;;;;;;;5273771;28;20020;-79
2022/11/06 13:38:59;;;;;;;2.35;1.15;;;;;;;;;;5290791;28;20024;-79
2022/11/06 13:41:30;;;;;;;5.00;1.40;;;;;;;;;;5275092;28;20028;-78
2022/11/06 13:44:06;;;;;;;7.30;1.45;;;;;;;;;;5271191;28;20051;-80
2022/11/06 13:46:43;;;;;;;7.57;1.77;;;;;;;;;;5295701;28;20049;-78
2022/11/06 13:49:14;;;;;;;6.57;1.60;;;;;;;;;;5270640;28;20039;-79
2022/11/06 13:51:45;;;;;;;7.13;1.90;;;;;;;;;;5286356;28;20096;-80
2022/11/06 13:54:29;;;;;;;5.17;1.70;;;;;;;;;;5280927;28;20768;-78
2022/11/06 13:57:19;;;;;;;7.03;1.58;;;;;;;;;;5276553;28;20275;-80
2022/11/06 14:00:10;;;;;;;6.10;1.77;;;;;;;;;;5282538;28;20393;-79
2022/11/06 14:02:50;;;;;;;9.43;1.67;;;;;;;;;;5262072;28;20056;-80
2022/11/06 14:05:31;;;;;;;5.13;1.83;;;;;;;;;;5292644;28;20079;-77
2022/11/06 14:08:05;;;;;;;5.70;2.05;;;;;;;;;;5269366;28;20029;-79
2022/11/06 14:10:37;;;;;;;4.43;1.70;;;;;;;;;;5271873;28;20028;-79
2022/11/06 14:13:12;;;;;;;8.15;2.00;;;;;;;;;;5277762;28;20051;-80
2022/11/06 14:15:45;;;;;;;4.57;1.77;;;;;;;;;;5277521;28;20432;-81
2022/11/06 14:18:21;;;;;;;9.70;2.28;;;;;;;;;;5280324;28;20025;-79
2022/11/06 14:21:12;;;;;;;5.40;1.90;;;;;;;;;;5278864;28;20068;-76
2022/11/06 14:23:50;;;;;;;5.43;2.00;;;;;;;;;;5279006;28;20044;-79
2022/11/06 14:26:54;;;;;;;5.70;2.17;;;;;;;;;;5269303;28;20372;-79
2022/11/06 14:29:26;;;;;;;9.43;2.35;;;;;;;;;;5233307;28;20389;-78
2022/11/06 14:31:59;;;;;;;7.72;2.72;;;;;;;;;;5263318;28;20040;-79
2022/11/06 14:34:33;;;;;;;7.35;2.20;;;;;;;;;;5283482;28;20413;-78
2022/11/06 14:37:16;;;;;;;9.07;2.00;;;;;;;;;;5285138;28;20012;-79
2022/11/06 14:39:53;;;;;;;6.90;2.25;;;;;;;;;;5276418;28;20052;-79
2022/11/06 14:42:28;;;;;;;7.90;1.98;;;;;;;;;;5263150;28;20029;-79
2022/11/06 14:45:07;;;;;;;12.77;2.90;;;;;;;;;;5281329;28;20033;-80
2022/11/06 14:47:41;;;;;;;8.23;2.55;;;;;;;;;;5279158;28;20140;-79
2022/11/06 14:50:18;;;;;;;6.65;2.22;;;;;;;;;;5282354;28;20028;-79
2022/11/06 14:52:57;;;;;;;6.70;2.40;;;;;;;;;;5290023;28;20477;-79
2022/11/06 14:55:33;;;;;;;4.68;2.08;;;;;;;;;;5292337;28;20059;-80
2022/11/06 14:58:13;;;;;;;7.93;2.50;;;;;;;;;;5285841;28;20183;-80
2022/11/06 15:00:50;;;;;;;15.23;3.30;;;;;;;;;;5289194;28;20025;-79
2022/11/06 15:03:27;;;;;;;6.18;2.25;;;;;;;;;;5286068;28;20508;-79
2022/11/06 15:06:18;;;;;;;3.53;2.30;;;;;;;;;;5284033;28;20033;-79
2022/11/06 15:08:51;;;;;;;5.80;2.15;;;;;;;;;;5283161;28;20094;-79
2022/11/06 15:11:28;;;;;;;5.78;2.28;;;;;;;;;;5267185;28;20021;-79
2022/11/06 15:13:59;;;;;;;7.28;2.40;;;;;;;;;;5282882;28;20029;-79
2022/11/06 15:16:48;;;;;;;7.47;2.42;;;;;;;;;;5279906;28;20086;-79
2022/11/06 15:19:30;;;;;;;5.95;2.35;;;;;;;;;;5293667;28;20043;-78
2022/11/06 15:22:17;;;;;;;4.97;2.53;;;;;;;;;;5273609;28;20025;-79
2022/11/06 15:25:15;;;;;;;6.07;2.33;;;;;;;;;;5284818;28;20108;-79
2022/11/06 15:28:04;;;;;;;6.95;2.65;;;;;;;;;;5280532;28;20041;-80
2022/11/06 15:30:40;;;;;;;8.13;2.72;;;;;;;;;;5276841;28;20033;-78
2022/11/06 15:33:14;;;;;;;13.68;2.83;;;;;;;;;;5271774;28;20115;-78
2022/11/06 15:35:48;;;;;;;3.58;2.33;;;;;;;;;;4384213;28;25195332;-78
2022/11/06 15:38:20;;;;;;;7.43;3.25;;;;;;;;;;5267731;28;20065;-78
2022/11/06 15:40:52;;;;;;;7.78;3.25;;;;;;;;;;5269079;28;20025;-78